createdAt,value
2023-12-17T00:00:07.620Z,20.75
2023-12-17T00:02:34.469Z,17.45
2023-12-17T00:05:01.389Z,18.98
2023-12-17T00:07:28.276Z,14.90
2023-12-17T00:09:57.012Z,19.67
2023-12-17T00:12:25.307Z,19.10
2023-12-17T00:14:55.228Z,18.08
2023-12-17T00:17:22.118Z,16.70
2023-12-17T00:19:51.364Z,20.35
2023-12-17T00:22:18.256Z,19.55
2023-12-17T00:24:45.087Z,17.73
2023-12-17T00:27:12.249Z,19.92
2023-12-17T00:29:39.061Z,15.80
2023-12-17T00:32:06.444Z,16.10
2023-12-17T00:34:39.331Z,16.77
2023-12-17T00:37:06.274Z,16.00
2023-12-17T00:39:33.107Z,18.63
2023-12-17T00:42:13.304Z,21.40
2023-12-17T00:44:40.240Z,17.50
2023-12-17T00:47:07.053Z,22.45
2023-12-17T00:49:36.593Z,20.23
2023-12-17T00:52:03.592Z,17.27
2023-12-17T00:54:34.230Z,17.77
2023-12-17T00:57:01.196Z,19.55
2023-12-17T00:59:31.263Z,19.08
2023-12-17T01:01:58.087Z,20.08
2023-12-17T01:04:24.958Z,17.98
2023-12-17T01:06:51.923Z,18.05
2023-12-17T01:09:23.125Z,16.73
2023-12-17T01:11:50.355Z,19.20
2023-12-17T01:14:17.199Z,16.60
2023-12-17T01:16:44.084Z,20.10
2023-12-17T01:19:11.068Z,18.20
2023-12-17T01:21:37.970Z,17.70
2023-12-17T01:24:07.196Z,17.98
2023-12-17T01:26:34.090Z,18.42
2023-12-17T01:29:00.918Z,18.60
2023-12-17T01:31:27.783Z,17.98
2023-12-17T01:33:55.070Z,16.33
2023-12-17T01:36:21.965Z,18.15
2023-12-17T01:38:50.086Z,19.50
2023-12-17T01:41:16.932Z,19.75
2023-12-17T01:43:46.293Z,19.23
2023-12-17T01:46:16.724Z,18.85
2023-12-17T01:48:45.670Z,18.10
2023-12-17T01:51:13.457Z,17.73
2023-12-17T01:53:41.242Z,19.00
2023-12-17T01:56:09.032Z,20.58
2023-12-17T01:58:36.116Z,18.77
2023-12-17T02:01:09.094Z,19.05
2023-12-17T02:03:45.209Z,17.65
2023-12-17T02:06:14.969Z,18.83
2023-12-17T02:08:47.785Z,17.33
2023-12-17T02:11:17.999Z,16.70
2023-12-17T02:13:45.939Z,20.08
2023-12-17T02:16:18.664Z,16.85
2023-12-17T02:18:47.913Z,17.95
2023-12-17T02:21:16.644Z,19.80
2023-12-17T02:23:43.565Z,17.13
2023-12-17T02:26:18.080Z,17.20
2023-12-17T02:28:46.957Z,16.85
2023-12-17T02:31:13.877Z,19.15
2023-12-17T02:33:40.883Z,17.48
2023-12-17T02:36:15.458Z,16.50
2023-12-17T02:38:42.677Z,17.33
2023-12-17T02:41:16.337Z,19.05
2023-12-17T02:43:45.911Z,16.88
2023-12-17T02:46:12.780Z,16.42
2023-12-17T02:48:43.765Z,17.40
2023-12-17T02:51:10.913Z,20.67
2023-12-17T02:53:37.843Z,17.45
2023-12-17T02:56:05.338Z,17.13
2023-12-17T02:58:35.142Z,20.23
2023-12-17T03:01:02.052Z,17.92
2023-12-17T03:03:28.962Z,17.13
2023-12-17T03:05:56.253Z,18.67
2023-12-17T03:08:25.022Z,18.58
2023-12-17T03:10:51.872Z,16.23
2023-12-17T03:13:20.994Z,15.65
2023-12-17T03:15:51.544Z,16.05
2023-12-17T03:18:27.027Z,19.00
2023-12-17T03:20:54.020Z,18.13
2023-12-17T03:23:20.915Z,17.80
2023-12-17T03:25:47.689Z,18.42
2023-12-17T03:28:19.132Z,17.98
2023-12-17T03:30:49.716Z,17.60
2023-12-17T03:33:17.442Z,16.45
2023-12-17T03:35:44.409Z,15.82
2023-12-17T03:38:11.265Z,17.10
2023-12-17T03:40:39.131Z,16.50
2023-12-17T03:43:08.032Z,15.55
2023-12-17T03:45:35.449Z,18.17
2023-12-17T03:48:03.123Z,16.92
2023-12-17T03:50:29.958Z,17.38
2023-12-17T03:52:59.757Z,16.65
2023-12-17T03:55:32.943Z,15.50
2023-12-17T03:58:00.102Z,13.65
2023-12-17T04:00:27.095Z,16.67
2023-12-17T04:03:02.556Z,19.55
2023-12-17T04:05:30.088Z,15.95
2023-12-17T04:07:57.597Z,15.27
2023-12-17T04:10:28.330Z,17.17
2023-12-17T04:12:55.175Z,17.88
2023-12-17T04:15:30.269Z,15.65
2023-12-17T04:17:57.295Z,18.75
2023-12-17T04:20:24.175Z,15.52
2023-12-17T04:22:50.970Z,15.98
2023-12-17T04:25:17.749Z,14.32
2023-12-17T04:27:44.872Z,14.55
2023-12-17T04:30:12.264Z,14.65
2023-12-17T04:32:42.153Z,14.38
2023-12-17T04:35:09.862Z,13.40
2023-12-17T04:37:42.952Z,13.23
2023-12-17T04:40:15.230Z,14.07
2023-12-17T04:42:44.763Z,16.50
2023-12-17T04:45:11.683Z,15.27
2023-12-17T04:47:38.937Z,12.75
2023-12-17T04:50:07.054Z,11.85
2023-12-17T04:52:36.451Z,15.70
2023-12-17T04:55:03.806Z,15.27
2023-12-17T04:57:39.766Z,15.07
2023-12-17T05:00:08.875Z,13.18
2023-12-17T05:02:35.781Z,12.10
2023-12-17T05:05:03.176Z,14.50
2023-12-17T05:07:30.072Z,14.00
2023-12-17T05:09:56.929Z,12.30
2023-12-17T05:12:23.744Z,12.40
2023-12-17T05:14:50.709Z,12.35
2023-12-17T05:17:18.538Z,14.45
2023-12-17T05:19:48.802Z,12.25
2023-12-17T05:22:15.835Z,12.43
2023-12-17T05:24:45.541Z,12.57
2023-12-17T05:27:12.419Z,13.13
2023-12-17T05:29:39.288Z,12.63
2023-12-17T05:32:06.233Z,14.48
2023-12-17T05:34:33.252Z,14.75
2023-12-17T05:37:03.362Z,15.18
2023-12-17T05:39:30.237Z,11.55
2023-12-17T05:41:57.102Z,14.43
2023-12-17T05:44:37.529Z,13.90
2023-12-17T05:47:10.477Z,16.10
2023-12-17T05:49:40.769Z,13.02
2023-12-17T05:52:09.888Z,15.50
2023-12-17T05:54:40.890Z,13.82
2023-12-17T05:57:09.738Z,11.45
2023-12-17T05:59:36.701Z,13.23
2023-12-17T06:02:03.689Z,13.68
2023-12-17T06:04:30.599Z,10.65
2023-12-17T06:06:57.621Z,11.85
2023-12-17T06:09:38.854Z,14.07
2023-12-17T06:12:08.973Z,13.80
2023-12-17T06:14:35.959Z,13.38
2023-12-17T06:17:10.320Z,14.77
2023-12-17T06:19:38.437Z,12.68
2023-12-17T06:22:05.654Z,12.32
2023-12-17T06:24:32.661Z,14.30
2023-12-17T06:27:01.228Z,13.20
2023-12-17T06:29:28.149Z,15.75
2023-12-17T06:31:54.944Z,14.93
2023-12-17T06:34:21.891Z,16.42
2023-12-17T06:36:50.456Z,13.65
2023-12-17T06:39:17.263Z,13.50
2023-12-17T06:41:44.523Z,14.38
2023-12-17T06:44:12.257Z,15.40
2023-12-17T06:46:40.397Z,12.15
2023-12-17T06:49:07.614Z,12.07
2023-12-17T06:51:39.056Z,14.98
2023-12-17T06:54:06.164Z,13.20
2023-12-17T06:56:33.098Z,15.25
2023-12-17T06:58:59.937Z,15.73
2023-12-17T07:01:38.855Z,14.02
2023-12-17T07:04:06.143Z,14.23
2023-12-17T07:06:33.282Z,13.25
2023-12-17T07:09:00.148Z,15.52
2023-12-17T07:11:27.042Z,15.48
2023-12-17T07:13:58.643Z,13.05
2023-12-17T07:16:29.135Z,13.95
2023-12-17T07:18:56.568Z,13.35
2023-12-17T07:21:23.664Z,11.98
2023-12-17T07:23:53.185Z,12.27
2023-12-17T07:26:23.162Z,13.98
2023-12-17T07:28:50.317Z,10.90
2023-12-17T07:31:17.344Z,13.88
2023-12-17T07:33:45.293Z,11.80
2023-12-17T07:36:12.283Z,12.93
2023-12-17T07:38:45.046Z,12.65
2023-12-17T07:41:12.063Z,12.77
2023-12-17T07:43:39.180Z,11.80
2023-12-17T07:46:06.113Z,11.90
2023-12-17T07:48:33.160Z,11.45
2023-12-17T07:51:03.542Z,12.13
2023-12-17T07:53:30.388Z,13.23
2023-12-17T07:55:57.253Z,11.38
2023-12-17T07:58:28.090Z,9.93
2023-12-17T08:00:55.038Z,16.23
2023-12-17T08:03:25.392Z,11.00
2023-12-17T08:05:52.736Z,15.57
2023-12-17T08:08:21.299Z,13.38
2023-12-17T08:10:48.256Z,14.95
2023-12-17T08:13:17.537Z,11.05
2023-12-17T08:15:46.614Z,14.68
2023-12-17T08:18:13.881Z,13.23
2023-12-17T08:20:43.551Z,12.38
2023-12-17T08:23:10.607Z,14.77
2023-12-17T08:25:37.413Z,14.23
2023-12-17T08:28:04.225Z,14.95
2023-12-17T08:30:31.094Z,14.63
2023-12-17T08:32:58.016Z,14.55
2023-12-17T08:35:24.921Z,15.48
2023-12-17T08:37:51.896Z,14.88
2023-12-17T08:40:26.147Z,15.20
2023-12-17T08:42:52.994Z,15.93
2023-12-17T08:45:21.776Z,14.82
2023-12-17T08:47:53.017Z,14.63
2023-12-17T08:50:20.324Z,14.02
2023-12-17T08:52:47.218Z,15.93
2023-12-17T08:55:14.416Z,14.30
2023-12-17T08:57:41.641Z,16.67
2023-12-17T09:00:09.168Z,14.32
2023-12-17T09:02:36.167Z,17.45
2023-12-17T09:05:04.332Z,14.23
2023-12-17T09:07:33.635Z,14.52
2023-12-17T09:10:00.787Z,14.45
2023-12-17T09:12:28.281Z,14.80
2023-12-17T09:14:56.844Z,15.77
2023-12-17T09:17:29.485Z,15.43
2023-12-17T09:19:59.482Z,14.88
2023-12-17T09:22:26.405Z,20.45
2023-12-17T09:24:53.481Z,17.17
2023-12-17T09:27:29.198Z,12.98
2023-12-17T09:29:56.189Z,14.55
2023-12-17T09:32:23.121Z,12.88
2023-12-17T09:34:52.944Z,13.50
2023-12-17T09:37:21.471Z,15.85
2023-12-17T09:39:48.291Z,24.10
2023-12-17T09:42:22.258Z,16.00
2023-12-17T09:44:52.823Z,14.70
2023-12-17T09:47:22.686Z,16.83
2023-12-17T09:49:49.699Z,13.60
2023-12-17T09:52:27.860Z,13.77
2023-12-17T09:54:56.808Z,15.45
2023-12-17T09:57:30.148Z,15.40
2023-12-17T10:00:05.352Z,14.40
2023-12-17T10:02:38.985Z,12.20
2023-12-17T10:05:16.132Z,14.32
2023-12-17T10:07:43.353Z,13.73
2023-12-17T10:10:10.506Z,14.40
2023-12-17T10:12:37.554Z,17.52
2023-12-17T10:15:04.935Z,15.43
2023-12-17T10:17:35.073Z,14.73
2023-12-17T10:20:07.451Z,16.02
2023-12-17T10:22:34.382Z,15.98
2023-12-17T10:25:04.040Z,16.38
2023-12-17T10:27:32.722Z,17.48
2023-12-17T10:30:01.695Z,15.95
2023-12-17T10:32:28.563Z,16.33
2023-12-17T10:34:55.907Z,15.93
2023-12-17T10:37:23.956Z,17.38
2023-12-17T10:39:59.304Z,16.23
2023-12-17T10:42:29.441Z,17.83
2023-12-17T10:44:58.019Z,17.77
2023-12-17T10:47:26.992Z,16.38
2023-12-17T10:49:55.159Z,16.23
2023-12-17T10:52:22.773Z,16.88
2023-12-17T10:54:53.621Z,20.38
2023-12-17T10:57:25.136Z,14.82
2023-12-17T10:59:55.207Z,15.88
2023-12-17T11:02:27.207Z,16.98
2023-12-17T11:04:56.919Z,19.40
2023-12-17T11:07:37.249Z,17.48
2023-12-17T11:10:13.150Z,14.57
2023-12-17T11:12:45.824Z,15.57
2023-12-17T11:15:20.893Z,16.02
2023-12-17T11:17:54.429Z,17.17
2023-12-17T11:20:22.565Z,15.88
2023-12-17T11:23:00.309Z,13.93
2023-12-17T11:25:33.498Z,16.45
2023-12-17T11:28:01.030Z,18.75
2023-12-17T11:30:33.916Z,15.52
2023-12-17T11:33:12.842Z,17.42
2023-12-17T11:35:40.138Z,16.25
2023-12-17T11:38:09.883Z,16.20
2023-12-17T11:40:36.740Z,14.95
2023-12-17T11:43:04.128Z,17.70
2023-12-17T11:45:41.656Z,15.60
2023-12-17T11:48:19.906Z,16.85
2023-12-17T11:50:52.405Z,16.35
2023-12-17T11:53:24.520Z,17.88
2023-12-17T11:58:22.083Z,16.58
2023-12-17T12:01:19.725Z,13.95
2023-12-17T12:03:47.375Z,15.82
2023-12-17T12:06:16.742Z,16.55
2023-12-17T12:08:48.045Z,15.98
2023-12-17T12:11:28.276Z,17.90
2023-12-17T12:14:03.246Z,15.73
2023-12-17T12:16:38.535Z,14.88
2023-12-17T12:19:08.727Z,18.48
2023-12-17T12:21:37.818Z,13.15
2023-12-17T12:24:11.093Z,13.70
2023-12-17T12:26:38.203Z,16.00
2023-12-17T12:29:06.454Z,13.23
2023-12-17T12:31:33.762Z,13.07
2023-12-17T12:34:02.674Z,13.88
2023-12-17T12:36:46.846Z,12.55
2023-12-17T12:39:18.256Z,11.65
2023-12-17T12:41:53.568Z,12.52
2023-12-17T12:44:20.614Z,11.68
2023-12-17T12:46:54.764Z,12.15
2023-12-17T12:49:26.802Z,10.45
2023-12-17T12:51:54.472Z,12.23
2023-12-17T12:54:21.443Z,12.93
2023-12-17T12:56:48.474Z,12.88
2023-12-17T12:59:22.998Z,10.95
2023-12-17T13:01:52.554Z,13.27
2023-12-17T13:04:19.953Z,12.43
2023-12-17T13:06:47.093Z,10.57
2023-12-17T13:09:17.835Z,11.38
2023-12-17T13:11:50.461Z,12.07
2023-12-17T13:14:17.356Z,10.57
2023-12-17T13:16:44.802Z,11.20
2023-12-17T13:19:14.901Z,13.27
2023-12-17T13:21:42.604Z,9.68
2023-12-17T13:24:09.574Z,14.63
2023-12-17T13:29:27.898Z,9.87
2023-12-17T13:31:58.116Z,12.18
2023-12-17T13:34:30.491Z,12.57
2023-12-17T13:37:00.420Z,12.57
2023-12-17T13:39:28.600Z,14.55
2023-12-17T13:42:02.351Z,14.32
2023-12-17T13:44:43.375Z,14.10
2023-12-17T13:47:22.157Z,9.57
2023-12-17T13:49:57.026Z,10.85
2023-12-17T13:52:28.787Z,9.15
2023-12-17T13:55:03.297Z,11.27
2023-12-17T13:57:33.795Z,12.95
2023-12-17T14:00:01.063Z,8.70
2023-12-17T14:02:37.292Z,11.60
2023-12-17T14:05:10.586Z,7.97
2023-12-17T14:07:48.891Z,9.77
2023-12-17T14:10:21.035Z,9.85
2023-12-17T14:12:55.980Z,10.73
2023-12-17T14:15:28.718Z,10.00
2023-12-17T14:18:03.314Z,10.20
2023-12-17T14:20:30.219Z,11.00
2023-12-17T14:22:59.997Z,9.98
2023-12-17T14:28:09.607Z,11.77
2023-12-17T14:30:36.585Z,9.90
2023-12-17T14:33:11.211Z,9.88
2023-12-17T14:35:38.622Z,8.68
2023-12-17T14:38:13.433Z,11.23
2023-12-17T14:40:43.657Z,8.52
2023-12-17T14:43:10.519Z,8.40
2023-12-17T14:45:43.066Z,8.38
2023-12-17T14:48:12.598Z,8.57
2023-12-17T14:50:39.546Z,9.55
2023-12-17T14:53:15.531Z,10.00
2023-12-17T14:55:43.117Z,10.45
2023-12-17T14:58:09.931Z,8.98
2023-12-17T15:00:36.861Z,9.52
2023-12-17T15:03:03.952Z,10.38
2023-12-17T15:05:30.901Z,10.43
2023-12-17T15:07:57.831Z,7.90
2023-12-17T15:10:24.651Z,8.55
2023-12-17T15:12:51.433Z,11.02
2023-12-17T15:15:21.137Z,8.40
2023-12-17T15:17:48.225Z,11.02
2023-12-17T15:20:15.272Z,11.45
2023-12-17T15:22:42.142Z,9.25
2023-12-17T15:25:09.155Z,9.77
2023-12-17T15:27:36.025Z,11.05
2023-12-17T15:30:03.243Z,11.68
2023-12-17T15:32:30.044Z,11.60
2023-12-17T15:34:57.105Z,14.10
2023-12-17T15:37:23.962Z,12.38
2023-12-17T15:39:50.779Z,13.30
2023-12-17T15:42:20.469Z,12.82
2023-12-17T15:44:47.575Z,13.07
2023-12-17T15:47:14.366Z,9.80
2023-12-17T15:49:41.202Z,11.75
2023-12-17T15:52:08.161Z,11.07
2023-12-17T15:54:35.178Z,13.65
2023-12-17T15:57:02.543Z,10.75
2023-12-17T15:59:29.332Z,15.45
2023-12-17T16:01:56.116Z,10.63
2023-12-17T16:04:22.923Z,13.48
2023-12-17T16:06:49.742Z,14.35
2023-12-17T16:09:16.674Z,16.17
2023-12-17T16:11:43.783Z,12.20
2023-12-17T16:14:10.717Z,15.05
2023-12-17T16:16:37.682Z,12.73
2023-12-17T16:19:04.723Z,16.67
2023-12-17T16:21:39.286Z,12.35
2023-12-17T16:24:14.524Z,11.88
2023-12-17T16:26:49.480Z,13.82
2023-12-17T16:29:22.151Z,14.30
2023-12-17T16:31:48.966Z,13.80
2023-12-17T16:34:16.038Z,15.77
2023-12-17T16:36:48.957Z,14.15
2023-12-17T16:39:17.253Z,17.10
2023-12-17T16:53:31.556Z,17.00
2023-12-17T16:55:58.583Z,20.08
2023-12-17T16:58:25.628Z,18.08
2023-12-17T17:00:55.663Z,19.23
2023-12-17T17:03:22.676Z,15.38
2023-12-17T17:05:49.846Z,14.38
2023-12-17T17:08:17.795Z,17.40
2023-12-17T17:10:49.522Z,20.83
2023-12-17T17:13:25.219Z,14.75
2023-12-17T17:15:54.387Z,21.30
2023-12-17T17:18:25.294Z,16.98
2023-12-17T17:20:59.325Z,15.10
2023-12-17T17:23:32.652Z,16.98
2023-12-17T17:26:09.293Z,15.85
2023-12-17T17:28:44.466Z,18.98
2023-12-17T17:31:11.696Z,13.30
2023-12-17T17:33:39.513Z,19.02
2023-12-17T17:36:10.340Z,19.67
2023-12-17T17:38:48.219Z,18.65
2023-12-17T17:41:20.845Z,18.63
2023-12-17T17:43:47.821Z,17.48
2023-12-17T17:46:14.717Z,16.95
2023-12-17T17:48:45.879Z,17.80
2023-12-17T17:51:16.132Z,14.03
2023-12-17T17:53:43.351Z,17.02
2023-12-17T17:56:12.861Z,13.60
2023-12-17T17:58:46.675Z,15.15
2023-12-17T18:01:17.471Z,15.85
2023-12-17T18:03:44.400Z,15.05
2023-12-17T18:06:11.824Z,14.57
2023-12-17T18:08:41.723Z,21.48
2023-12-17T18:11:08.538Z,17.05
2023-12-17T18:13:37.262Z,14.85
2023-12-17T18:16:04.403Z,16.65
2023-12-17T18:18:31.448Z,16.33
2023-12-17T18:20:58.340Z,16.85
2023-12-17T18:23:28.235Z,14.15
2023-12-17T18:25:55.044Z,17.23
2023-12-17T18:28:21.944Z,19.05
2023-12-17T18:30:48.821Z,17.75
2023-12-17T18:33:15.941Z,16.08
2023-12-17T18:35:48.051Z,16.02
2023-12-17T18:40:46.928Z,20.38
2023-12-17T18:43:13.821Z,17.90
2023-12-17T18:45:41.030Z,19.75
2023-12-17T18:48:08.313Z,21.27
2023-12-17T18:50:35.271Z,21.95
2023-12-17T18:53:04.546Z,22.25
2023-12-17T18:55:35.393Z,16.55
2023-12-17T18:58:11.434Z,25.38
2023-12-17T19:00:38.472Z,19.25
2023-12-17T19:03:05.638Z,17.50
2023-12-17T19:05:33.000Z,17.58
2023-12-17T19:08:01.338Z,24.25
2023-12-17T19:10:28.179Z,16.17
2023-12-17T19:12:54.991Z,19.02
2023-12-17T19:15:22.124Z,15.60
2023-12-17T19:17:49.146Z,21.17
2023-12-17T19:20:19.909Z,21.38
2023-12-17T19:22:46.833Z,20.52
2023-12-17T19:25:13.996Z,24.20
2023-12-17T19:27:40.838Z,19.27
2023-12-17T19:30:11.029Z,22.48
2023-12-17T19:32:41.069Z,18.70
2023-12-17T19:35:08.086Z,20.65
2023-12-17T19:37:35.238Z,19.90
2023-12-17T19:40:07.642Z,22.27
2023-12-17T19:42:37.048Z,21.05
2023-12-17T19:45:09.946Z,20.20
2023-12-17T19:47:37.435Z,19.03
2023-12-17T19:50:07.020Z,18.73
2023-12-17T19:52:34.399Z,24.33
2023-12-17T19:55:01.363Z,19.55
2023-12-17T19:57:28.269Z,17.45
2023-12-17T19:59:55.131Z,19.55
2023-12-17T20:02:21.939Z,17.90
2023-12-17T20:04:51.740Z,22.17
2023-12-17T20:07:18.597Z,18.25
2023-12-17T20:10:00.195Z,19.40
2023-12-17T20:12:31.116Z,25.15
2023-12-17T20:15:01.300Z,23.23
2023-12-17T20:17:28.718Z,20.75
2023-12-17T20:19:55.677Z,19.52
2023-12-17T20:22:23.661Z,17.10
2023-12-17T20:24:56.354Z,18.48
2023-12-17T20:27:23.205Z,20.02
2023-12-17T20:29:50.112Z,18.52
2023-12-17T20:32:19.272Z,16.63
2023-12-17T20:34:46.139Z,18.73
2023-12-17T20:37:13.048Z,21.05
2023-12-17T20:39:41.062Z,23.90
2023-12-17T20:42:08.109Z,16.50
2023-12-17T20:44:39.510Z,19.73
2023-12-17T20:47:17.902Z,18.50
2023-12-17T20:49:54.577Z,22.80
2023-12-17T20:52:21.525Z,20.05
2023-12-17T20:54:58.192Z,19.90
2023-12-17T20:57:28.862Z,19.17
2023-12-17T20:59:55.846Z,20.08
2023-12-17T21:02:28.235Z,19.67
2023-12-17T21:05:02.379Z,20.63
2023-12-17T21:07:38.847Z,18.50
2023-12-17T21:10:15.039Z,18.13
2023-12-17T21:12:59.481Z,19.02
2023-12-17T21:15:43.803Z,22.17
2023-12-17T21:18:25.087Z,20.15
2023-12-17T21:20:55.545Z,21.80
2023-12-17T21:23:36.516Z,16.65
2023-12-17T21:26:19.751Z,18.70
2023-12-17T21:29:05.844Z,17.55
2023-12-17T21:31:53.383Z,17.08
2023-12-17T21:34:39.159Z,19.30
2023-12-17T21:37:32.670Z,20.08
2023-12-17T21:40:10.316Z,18.58
2023-12-17T21:42:52.008Z,23.85
2023-12-17T21:45:33.967Z,19.25
2023-12-17T21:48:19.044Z,17.13
2023-12-17T21:51:01.261Z,19.15
2023-12-17T21:53:31.237Z,20.15
2023-12-17T21:56:18.143Z,20.88
2023-12-17T21:58:58.420Z,25.67
2023-12-17T22:01:34.119Z,21.50
2023-12-17T22:04:04.201Z,22.70
2023-12-17T22:06:43.138Z,25.08
2023-12-17T22:09:24.904Z,21.38
2023-12-17T22:12:01.284Z,23.48
2023-12-17T22:14:34.097Z,19.02
2023-12-17T22:17:01.538Z,21.50
2023-12-17T22:19:31.070Z,20.83
2023-12-17T22:22:01.144Z,19.85
2023-12-17T22:24:30.386Z,23.73
2023-12-17T22:27:08.092Z,20.48
2023-12-17T22:29:38.664Z,21.55
2023-12-17T22:32:06.674Z,17.52
2023-12-17T22:34:41.120Z,20.20
2023-12-17T22:37:09.797Z,21.95
2023-12-17T22:39:37.274Z,17.52
2023-12-17T22:42:04.741Z,20.65
2023-12-17T22:44:42.075Z,17.42
2023-12-17T22:47:21.881Z,19.02
2023-12-17T22:49:48.896Z,15.30
2023-12-17T22:52:18.751Z,15.68
2023-12-17T22:54:45.651Z,16.85
2023-12-17T22:57:12.612Z,14.52
2023-12-17T22:59:39.984Z,19.77
2023-12-17T23:02:09.817Z,17.95
2023-12-17T23:04:43.388Z,14.93
2023-12-17T23:07:14.778Z,17.38
2023-12-17T23:09:42.122Z,15.45
2023-12-17T23:12:08.997Z,15.15
2023-12-17T23:14:35.964Z,14.32
2023-12-17T23:17:05.380Z,13.43
2023-12-17T23:19:35.078Z,12.35
2023-12-17T23:22:01.933Z,14.55
2023-12-17T23:24:28.807Z,17.38
2023-12-17T23:26:55.770Z,16.63
2023-12-17T23:29:22.875Z,14.10
2023-12-17T23:31:49.901Z,18.65
2023-12-17T23:34:20.108Z,14.48
2023-12-17T23:36:55.836Z,14.55
2023-12-17T23:39:23.172Z,18.00
2023-12-17T23:41:52.800Z,25.48
2023-12-17T23:44:20.015Z,34.60
2023-12-17T23:46:48.964Z,40.63
2023-12-17T23:49:19.175Z,33.55
2023-12-17T23:51:46.086Z,27.52
2023-12-17T23:54:13.191Z,22.75
2023-12-17T23:56:45.575Z,33.75
2023-12-17T23:59:15.438Z,18.63
